Kota Bharu, Malaysia
Current Conditions -  °F | °C
As of 2:00 PM on Saturday 29 Nov 2014 (Local Time) from WMKC Reporting Station
Broken Clouds Broken Clouds  
Wind Chill: 86°   Ceiling: 28000
Heat Index: 97°   Visibility: 6mi
Dew Point: 77°   Wind: 0mph
Humidity: 74%   Direction: NA
Pressure: 29.8"   Gusts: NA
Location:  6.17°N, 102.28°E
Report Text: WMKC 290600Z 00000KT 9999 SCT018 BKN280 30/25 Q1009
Loading
Personal Weather Stations






























Interactive Weather Map New forecast layout! Learn more

10-Day Weather Forecast

Advertisements
Track Severe Weather on mobile